Time;durP1;ratioP1;P1;durP2;ratioP2;P2;SDS_P1;SDS_P2;PMS_P1;PMS_P2;Temp;Humidity;BMP_temperature;BMP_pressure;BME280_temperature;BME280_humidity;BME280_pressure;Samples;Min_cycle;Max_cycle;Signal;HPM_P1;HPM_P2
2022/12/24 00:08:22;;;;;;;2.25;2.15;;;;;;;6.48;74.60;99905.34;18356051;32;20113;-59
2022/12/24 00:18:26;;;;;;;0.88;0.88;;;;;;;7.51;71.03;99906.69;18354814;32;20740;-59
2022/12/24 00:28:30;;;;;;;1.15;0.80;;;;;;;7.71;70.02;99909.31;18354188;32;20113;-60
2022/12/24 00:38:34;;;;;;;6.20;3.80;;;;;;;7.74;69.89;99906.75;18354029;32;20105;-59
2022/12/24 00:48:38;;;;;;;4.15;2.30;;;;;;;7.80;69.70;99908.47;18353066;32;20105;-59
2022/12/24 00:58:41;;;;;;;4.68;3.37;;;;;;;7.89;69.15;99913.69;18353362;32;20097;-59
2022/12/24 01:08:47;;;;;;;2.60;2.42;;;;;;;7.80;69.50;99918.88;18360452;32;20093;-59
2022/12/24 01:18:50;;;;;;;3.37;1.98;;;;;;;8.07;68.39;99865.19;18361574;32;20142;-59
2022/12/24 01:28:56;;;;;;;1.35;0.95;;;;;;;7.64;69.72;99890.25;18362820;32;20420;-60
2022/12/24 01:38:59;;;;;;;2.05;1.35;;;;;;;7.62;70.12;99885.91;18361276;32;20108;-59
2022/12/24 01:49:05;;;;;;;2.10;1.85;;;;;;;7.78;69.86;99858.25;18360427;31;20181;-59
2022/12/24 01:59:11;;;;;;;3.70;3.40;;;;;;;7.84;69.60;99844.38;18361220;32;20714;-59
2022/12/24 02:09:16;;;;;;;1.20;1.20;;;;;;;7.89;69.52;99850.44;18360868;32;20437;-59
2022/12/24 02:19:52;;;;;;;0.62;0.62;;;;;;;7.89;69.46;99872.09;18360351;32;20376;-59
2022/12/24 02:30:04;;;;;;;1.77;1.62;;;;;;;7.98;69.47;99859.97;18420361;32;20121;-59
2022/12/24 02:40:12;;;;;;;0.60;0.60;;;;;;;8.05;68.76;99877.28;18422683;32;20140;-60
2022/12/24 02:50:20;;;;;;;1.73;1.63;;;;;;;8.05;69.50;99887.69;18422283;32;20145;-59
2022/12/24 03:00:24;;;;;;;2.95;2.28;;;;;;;8.11;69.44;99903.28;18408992;32;20418;-60
2022/12/24 03:10:32;;;;;;;2.03;1.20;;;;;;;8.11;69.30;99887.69;18358409;32;20137;-59
2022/12/24 03:20:39;;;;;;;1.77;1.15;;;;;;;7.93;70.31;99872.97;18357199;32;20134;-60
2022/12/24 03:30:46;;;;;;;0.90;0.90;;;;;;;8.15;69.96;99846.97;18356114;32;20157;-60
2022/12/24 03:40:49;;;;;;;1.35;0.95;;;;;;;8.08;70.30;99859.09;18356637;32;20402;-60
2022/12/24 03:50:54;;;;;;;6.50;2.87;;;;;;;8.18;69.67;99872.94;18355476;32;20146;-59
2022/12/24 04:00:57;;;;;;;32.17;2.50;;;;;;;8.21;69.42;99885.09;18355838;32;20098;-60
2022/12/24 04:11:01;;;;;;;0.50;0.50;;;;;;;8.15;69.40;99894.59;18355752;32;20351;-59
2022/12/24 04:21:12;;;;;;;1.17;1.17;;;;;;;7.73;71.06;99881.63;18409738;32;20108;-59
2022/12/24 04:31:17;;;;;;;1.42;1.33;;;;;;;7.81;70.59;99892.03;18418556;32;20136;-60
2022/12/24 04:41:22;;;;;;;5.72;3.60;;;;;;;7.77;70.35;99896.34;18423116;32;20249;-60
2022/12/24 04:51:28;;;;;;;1.27;1.23;;;;;;;7.91;69.70;99883.38;18426621;32;20148;-59
2022/12/24 05:01:32;;;;;;;6.50;4.05;;;;;;;7.86;69.49;99911.06;18426553;32;20120;-60
2022/12/24 05:11:37;;;;;;;1.27;1.10;;;;;;;7.67;69.89;99905.00;18427391;32;20171;-59
2022/12/24 05:21:40;;;;;;;2.30;2.15;;;;;;;7.85;69.11;99908.50;18427645;32;20117;-59
2022/12/24 05:31:45;;;;;;;0.82;0.82;;;;;;;7.64;69.88;99913.66;18425516;32;20452;-59
2022/12/24 05:41:49;;;;;;;3.10;2.90;;;;;;;7.48;70.57;99914.47;18425968;32;20119;-59
2022/12/24 05:51:53;;;;;;;0.70;0.70;;;;;;;7.31;70.74;99923.09;18424812;32;20416;-59
2022/12/24 06:01:56;;;;;;;1.65;1.55;;;;;;;7.16;71.01;99923.03;18422021;32;20383;-60
2022/12/24 06:12:01;;;;;;;1.83;1.73;;;;;;;7.05;71.22;99915.19;18360636;32;20090;-59
2022/12/24 06:22:04;;;;;;;1.15;1.10;;;;;;;7.00;70.73;99924.69;18385835;32;20111;-59
2022/12/24 06:32:09;;;;;;;1.55;1.45;;;;;;;6.84;71.25;99931.53;18375387;32;20111;-60
2022/12/24 06:42:12;;;;;;;3.47;3.22;;;;;;;6.58;72.78;99945.19;18362867;31;20101;-60
2022/12/24 06:52:17;;;;;;;1.20;1.20;;;;;;;6.85;72.01;99970.44;18385498;32;20125;-60
2022/12/24 07:02:21;;;;;;;1.20;1.20;;;;;;;7.04;71.24;99978.34;18401193;32;20097;-60
2022/12/24 07:12:26;;;;;;;3.33;3.12;;;;;;;6.52;73.29;99983.19;18389188;32;20129;-59
2022/12/24 07:22:29;;;;;;;2.62;2.42;;;;;;;6.14;75.37;100004.47;18357976;32;20433;-59
2022/12/24 07:32:34;;;;;;;6.47;5.97;;;;;;;7.26;70.19;100012.22;18371277;32;20111;-59
2022/12/24 07:42:37;;;;;;;2.78;2.37;;;;;;;7.16;70.45;100027.75;18391635;32;20152;-59
2022/12/24 07:52:42;;;;;;;2.92;2.65;;;;;;;6.57;73.96;100037.69;18420866;32;20429;-59
2022/12/24 08:02:45;;;;;;;0.80;0.80;;;;;;;7.60;71.89;100049.59;18402592;32;20145;-59
2022/12/24 08:12:50;;;;;;;0.75;0.75;;;;;;;7.35;74.03;100059.84;18355370;32;20101;-59
2022/12/24 08:22:53;;;;;;;3.33;3.05;;;;;;;7.67;72.37;100073.88;18355215;32;20401;-59
2022/12/24 08:32:58;;;;;;;1.62;1.52;;;;;;;8.08;72.32;100106.09;18373138;32;20197;-59
2022/12/24 08:43:01;;;;;;;2.28;2.17;;;;;;;7.60;74.72;100118.84;18418130;32;20105;-59
2022/12/24 08:53:06;;;;;;;1.25;1.15;;;;;;;8.46;72.88;100127.84;18417366;32;20092;-59
2022/12/24 09:03:13;;;;;;;1.33;1.02;;;;;;;7.62;81.87;100149.19;18417320;32;20092;-60
2022/12/24 09:13:18;;;;;;;6.00;4.90;;;;;;;9.63;74.80;100153.91;18415971;32;20130;-59
2022/12/24 09:23:21;;;;;;;7.80;4.07;;;;;;;9.63;73.25;100186.06;18417708;32;20111;-59
2022/12/24 09:33:26;;;;;;;0.80;0.80;;;;;;;10.16;72.45;100165.03;18404760;32;20171;-59
2022/12/24 09:43:54;;;;;;;0.73;0.73;;;;;;;10.76;71.92;100166.47;18362904;32;20097;-59
2022/12/24 09:54:01;;;;;;;0.80;0.80;;;;;;;11.43;69.54;100162.44;18361226;32;20169;-60
2022/12/24 10:04:09;;;;;;;0.50;0.50;;;;;;;11.83;68.31;100171.63;18361041;32;20425;-60
2022/12/24 10:14:22;;;;;;;0.47;0.47;;;;;;;12.37;66.26;100178.00;18360467;32;20128;-60
2022/12/24 10:24:30;;;;;;;0.50;0.50;;;;;;;12.76;64.98;100196.66;18360276;32;20104;-60
2022/12/24 10:34:38;;;;;;;0.40;0.40;;;;;;;12.98;64.07;100194.59;18360792;32;20153;-60
2022/12/24 10:44:41;;;;;;;0.62;0.62;;;;;;;13.08;66.21;100191.84;18358264;32;20467;-59
2022/12/24 10:55:09;;;;;;;0.40;0.40;;;;;;;13.28;61.94;100191.53;18358837;32;20093;-59
2022/12/24 11:05:29;;;;;;;0.40;0.40;;;;;;;13.47;60.18;100197.31;18358486;32;20421;-60
2022/12/24 11:15:34;;;;;;;0.40;0.40;;;;;;;13.96;58.66;100187.69;18397419;32;20107;-59
2022/12/24 11:25:40;;;;;;;0.68;0.68;;;;;;;14.11;57.24;100209.25;18421743;32;20131;-59
2022/12/24 11:35:46;;;;;;;0.40;0.40;;;;;;;14.07;55.43;100223.34;18494174;31;160848;-59
2022/12/24 11:45:51;;;;;;;0.50;0.50;;;;;;;14.70;54.50;100229.91;18691770;31;20462;-60
2022/12/24 11:55:57;;;;;;;0.30;0.30;;;;;;;14.42;50.28;100225.25;18692228;31;20112;-59
2022/12/24 12:06:02;;;;;;;0.40;0.40;;;;;;;14.80;49.84;100225.38;18692133;31;20152;-59
2022/12/24 12:16:14;;;;;;;2.90;1.08;;;;;;;14.77;49.23;100243.81;18691498;31;20115;-59
2022/12/24 12:26:21;;;;;;;0.40;0.40;;;;;;;14.90;49.91;100248.81;18692168;31;20132;-59
2022/12/24 12:36:31;;;;;;;0.37;0.37;;;;;;;15.07;49.47;100266.81;18691385;31;20079;-59
2022/12/24 12:46:41;;;;;;;0.40;0.40;;;;;;;14.71;49.82;100289.44;18690878;31;20096;-60
2022/12/24 12:56:47;;;;;;;0.37;0.37;;;;;;;14.82;49.72;100291.87;18689423;31;20092;-59
2022/12/24 13:07:36;;;;;;;0.30;0.30;;;;;;;14.99;49.84;100311.69;18697494;31;20091;-60
2022/12/24 13:18:02;;;;;;;0.37;0.37;;;;;;;15.09;49.77;100301.81;18479667;32;20108;-60
2022/12/24 13:28:36;;;;;;;0.40;0.40;;;;;;;14.71;50.62;100322.75;18450772;32;20132;-60
2022/12/24 13:38:42;;;;;;;0.30;0.30;;;;;;;15.05;49.75;100337.81;18185266;32;20485;-59
2022/12/24 13:48:45;;;;;;;0.40;0.40;;;;;;;14.87;49.26;100338.22;18292488;32;20109;-60
2022/12/24 13:58:53;;;;;;;0.77;0.77;;;;;;;14.70;49.13;100345.53;18489423;32;20872;-60
2022/12/24 14:08:59;;;;;;;0.40;0.40;;;;;;;14.48;49.46;100347.69;18487044;31;20361;-59
2022/12/24 14:19:11;;;;;;;0.40;0.40;;;;;;;14.11;50.92;100369.37;18425411;32;20145;-60
2022/12/24 14:29:16;;;;;;;;;;;;;;;14.14;50.50;100396.44;18425466;32;20149;-59
2022/12/24 14:39:31;;;;;;;0.30;0.30;;;;;;;14.09;50.82;100416.69;18424137;32;19985;-59
2022/12/24 14:49:40;;;;;;;0.30;0.30;;;;;;;14.09;49.89;100445.56;18423034;32;20093;-60
2022/12/24 14:59:48;;;;;;;0.40;0.40;;;;;;;14.34;48.96;100453.00;18417343;32;20377;-60
2022/12/24 15:09:53;;;;;;;0.40;0.40;;;;;;;14.18;50.92;100460.28;18422502;32;20115;-60
2022/12/24 15:19:58;;;;;;;0.40;0.40;;;;;;;14.30;51.02;100467.09;18421509;32;20097;-60
2022/12/24 15:30:09;;;;;;;0.40;0.40;;;;;;;13.86;52.16;100472.16;18421717;32;20088;-60
2022/12/24 15:40:20;;;;;;;0.40;0.40;;;;;;;13.29;53.86;100487.69;18422048;32;20108;-60
2022/12/24 15:50:26;;;;;;;0.40;0.40;;;;;;;12.75;55.53;100502.25;18419537;32;20125;-60
2022/12/24 16:00:31;;;;;;;0.30;0.30;;;;;;;12.56;55.87;100511.16;18420024;32;20133;-60
2022/12/24 16:10:37;;;;;;;0.50;0.50;;;;;;;12.42;55.38;100526.97;18419586;32;20112;-59
2022/12/24 16:20:47;;;;;;;0.65;0.65;;;;;;;12.55;53.26;100536.50;18419062;32;20111;-60
2022/12/24 16:30:50;;;;;;;0.50;0.50;;;;;;;12.77;52.56;100531.94;18414822;32;20649;-60
2022/12/24 16:40:55;;;;;;;0.50;0.50;;;;;;;12.92;51.59;100544.91;18439677;32;20103;-60
2022/12/24 16:50:58;;;;;;;0.40;0.40;;;;;;;12.50;52.61;100546.13;18439244;32;20174;-59
2022/12/24 17:01:08;;;;;;;0.40;0.40;;;;;;;12.28;52.57;100545.41;18438727;32;20107;-59
2022/12/24 17:11:12;;;;;;;0.50;0.50;;;;;;;12.87;51.12;100548.44;18438344;32;20112;-60
2022/12/24 17:21:16;;;;;;;0.50;0.50;;;;;;;13.04;50.81;100563.13;18437908;32;20129;-59
2022/12/24 17:31:19;;;;;;;0.43;0.43;;;;;;;12.98;50.57;100568.41;18404195;32;20581;-60
2022/12/24 17:41:24;;;;;;;0.55;0.55;;;;;;;12.46;52.19;100595.03;18400392;32;20113;-60
2022/12/24 17:51:27;;;;;;;0.60;0.60;;;;;;;11.58;54.57;100611.16;18376239;32;20093;-60
2022/12/24 18:01:32;;;;;;;0.50;0.50;;;;;;;11.29;55.42;100622.53;18385327;32;20149;-60
2022/12/24 18:11:37;;;;;;;0.68;0.68;;;;;;;10.90;56.94;100633.00;18410963;32;20105;-60
2022/12/24 18:21:41;;;;;;;3.10;2.15;;;;;;;10.68;57.28;100635.59;18415805;32;20405;-60
2022/12/24 18:31:44;;;;;;;0.85;0.85;;;;;;;10.51;57.85;100643.41;18392292;32;20094;-60
2022/12/24 18:41:49;;;;;;;1.73;0.90;;;;;;;10.17;58.99;100648.50;18384115;32;20456;-60
2022/12/24 18:51:52;;;;;;;0.95;0.82;;;;;;;9.88;59.54;100644.03;18389333;31;20101;-60
2022/12/24 19:01:57;;;;;;;0.80;0.80;;;;;;;9.48;61.26;100661.19;18381527;32;20109;-60
2022/12/24 19:12:00;;;;;;;0.60;0.60;;;;;;;9.65;60.36;100696.91;18381624;32;20104;-60
2022/12/24 19:22:05;;;;;;;0.60;0.60;;;;;;;9.91;65.83;100699.69;18381582;32;20488;-60
2022/12/24 19:32:08;;;;;;;0.60;0.60;;;;;;;10.64;64.16;100706.94;18379786;32;20117;-60
2022/12/24 19:42:12;;;;;;;0.85;0.85;;;;;;;11.19;63.58;100719.22;18378707;32;20147;-60
2022/12/24 19:52:16;;;;;;;0.40;0.40;;;;;;;11.96;61.17;100721.75;18378911;32;20093;-60
2022/12/24 20:02:20;;;;;;;0.93;0.93;;;;;;;12.01;60.27;100740.94;18379390;32;20093;-60
2022/12/24 20:12:23;;;;;;;0.88;0.88;;;;;;;12.01;60.01;100744.41;18378326;32;20093;-60
2022/12/24 20:22:28;;;;;;;0.73;0.73;;;;;;;11.71;60.93;100756.66;18369616;32;20109;-60
2022/12/24 20:32:31;;;;;;;0.40;0.40;;;;;;;11.73;60.71;100760.16;18365443;32;20105;-60
2022/12/24 20:42:36;;;;;;;0.40;0.40;;;;;;;11.70;61.04;100772.34;18362988;32;20116;-60
2022/12/24 20:52:39;;;;;;;0.60;0.60;;;;;;;11.98;60.21;100754.88;18379861;32;20093;-59
2022/12/24 21:02:43;;;;;;;0.93;0.93;;;;;;;12.24;59.79;100761.81;18390049;32;20121;-59
2022/12/24 21:12:55;;;;;;;0.70;0.70;;;;;;;11.55;61.84;100773.22;18410946;32;20117;-60
2022/12/24 21:23:00;;;;;;;0.82;0.82;;;;;;;11.73;60.27;100762.75;18384117;32;20116;-60
2022/12/24 21:33:03;;;;;;;0.90;0.90;;;;;;;11.50;60.31;100775.84;18387552;32;20108;-60
2022/12/24 21:43:08;;;;;;;1.77;1.65;;;;;;;10.95;60.74;100778.41;18388019;32;20097;-60
2022/12/24 22:03:33;;;;;;;0.60;0.60;;;;;;;10.11;61.46;100842.41;18403885;32;20472;-60
2022/12/24 22:13:36;;;;;;;1.00;1.00;;;;;;;9.44;63.78;100844.44;18421403;32;20081;-59
2022/12/24 22:23:41;;;;;;;0.73;0.73;;;;;;;9.38;65.74;100840.06;18420965;32;20115;-59
2022/12/24 22:33:45;;;;;;;0.80;0.80;;;;;;;9.43;66.45;100821.84;18420690;32;20099;-59
2022/12/24 22:43:50;;;;;;;0.70;0.70;;;;;;;9.63;64.76;100831.59;18420310;32;20093;-60
2022/12/24 22:53:53;;;;;;;0.60;0.60;;;;;;;9.56;63.54;100848.91;18419898;32;20097;-60
2022/12/24 23:03:57;;;;;;;0.70;0.70;;;;;;;9.62;63.77;100851.56;18419533;32;20101;-59
2022/12/24 23:24:23;;;;;;;0.60;0.60;;;;;;;8.57;65.75;100846.06;18418654;32;20096;-59
2022/12/24 23:34:26;;;;;;;0.80;0.80;;;;;;;8.68;64.17;100860.09;18445513;31;20144;-60
2022/12/24 23:44:31;;;;;;;4.28;1.35;;;;;;;8.50;64.81;100878.91;18417471;32;20092;-59
2022/12/24 23:54:34;;;;;;;0.88;0.68;;;;;;;8.37;65.48;100862.25;18417269;32;20115;-59
